Helena, Missouri
Current Conditions -  °F | °C
As of 1:53 PM on Wednesday 28 Jan 2015 (Local Time) from KSTJ Reporting Station
Clear Clear  
Wind Chill: 70°   Ceiling: Unl
Heat Index: 70°   Visibility: 10mi
Dew Point: 39°   Wind: 14mph
Humidity: 32%   Direction: 190°S
Pressure: 29.72"   Gusts: 23mph
Location:  39.91°N, 94.65°W
Report Text: KSTJ 281953Z 19012G20KT 10SM CLR 21/04 A2972 RMK AO2 SLP062 T02110039
Loading
Personal Weather Stations






























Interactive Weather Map New forecast layout! Learn more

10-Day Weather Forecast

Advertisements
Track Severe Weather on mobile